»·PEaware :: N951J KMRY-KTVL

N951J :: KMRY-KTVL

FLIGHT INFORMATION

Flight Status: Arrived
Operator: Privately registered:
United States
More flights under this callsign
Pilot: Chase C. (10526)
Aircraft: MOONEY M-20 201 202 205 220 ATS MSE
(M20P)
More flights by this aircraft type
Origin: KMRY Monterey Peninsula
United States
Destination: KTVL Lake Tahoe
United States
More flights between these airports :: More routes between these airports
Route: +MRY4 SNS V111 MOD LIN V338 SWR
File this flight plan on PilotEdge
Remarks:
Altitude:
(Current/Filed)
21,000ft
Speed:
(Current/Filed)
240kts
Departed: 14-Sep-18 10:25 AM
Arrived: 14-Sep-18 11:50 AM
Distance/Time
Traveled:
164nm/1:25
Distance/Time
To Go:
Arrived

Flight Plot

Page will automatically refresh every two minutes.

Flight plan parsing failed; only flown route is shown


Map Options




Map Legend


Flown Route
Filed Route
Departure Airport
Arrival Airport
Navaid (VOR, NDB)
Fix

Horizontal Profiles

Position Reports

Time Latitude Longitude Heading Altitude Ground
Speed
14-Sep-18 10:11 36.589326 -121.858001 305 257ft 0kts
14-Sep-18 10:12 36.589326 -121.858001 305 257ft 0kts
14-Sep-18 10:13 36.589326 -121.858001 305 257ft 0kts
14-Sep-18 10:14 36.589326 -121.858001 305 257ft 0kts
14-Sep-18 10:15 36.589326 -121.858001 305 257ft 0kts
14-Sep-18 10:16 36.589326 -121.858001 305 257ft 0kts
14-Sep-18 10:17 36.589326 -121.858002 305 257ft 0kts
14-Sep-18 10:18 36.589326 -121.858002 305 257ft 0kts
14-Sep-18 10:19 36.589326 -121.858002 305 257ft 0kts
14-Sep-18 10:20 36.589326 -121.858002 305 257ft 0kts
14-Sep-18 10:21 36.589275 -121.856333 77 257ft 13kts
14-Sep-18 10:22 36.588959 -121.852707 115 257ft 15kts
14-Sep-18 10:23 36.587165 -121.847348 115 257ft 20kts
14-Sep-18 10:24 36.585312 -121.842282 113 257ft 20kts
14-Sep-18 10:25 36.583376 -121.836564 107 257ft 19kts
14-Sep-18 10:26 36.583327 -121.833654 315 257ft 11kts
14-Sep-18 10:27 36.589832 -121.853558 291 649ft 114kts
14-Sep-18 10:28 36.617632 -121.872029 340 1827ft 130kts
14-Sep-18 10:29 36.651426 -121.885805 339 3000ft 133kts
14-Sep-18 10:30 36.680388 -121.884723 58 4022ft 142kts
14-Sep-18 10:31 36.679387 -121.838275 93 5159ft 144kts
14-Sep-18 10:32 36.676658 -121.796353 93 6172ft 143kts
14-Sep-18 10:33 36.673854 -121.753538 94 7216ft 142kts
14-Sep-18 10:34 36.671227 -121.713650 95 8199ft 140kts
14-Sep-18 10:35 36.668472 -121.672057 97 9178ft 141kts
14-Sep-18 10:36 36.665716 -121.630386 100 10140ft 134kts
14-Sep-18 10:37 36.676134 -121.595357 21 11049ft 132kts
14-Sep-18 10:38 36.703355 -121.577232 24 11771ft 140kts
14-Sep-18 10:39 36.730180 -121.559421 25 12403ft 146kts
14-Sep-18 10:40 36.758008 -121.540979 25 13035ft 149kts
14-Sep-18 10:41 36.785346 -121.522872 25 13646ft 151kts
14-Sep-18 10:42 36.812539 -121.504855 25 14250ft 150kts
14-Sep-18 10:43 36.842188 -121.485201 25 14913ft 149kts
14-Sep-18 10:44 36.871825 -121.465538 25 15584ft 147kts
14-Sep-18 10:45 36.901658 -121.445705 25 16274ft 141kts
14-Sep-18 10:46 36.929002 -121.427537 24 16748ft 151kts
14-Sep-18 10:47 36.957825 -121.408373 25 17174ft 161kts
14-Sep-18 10:48 36.991576 -121.385852 25 17640ft 168kts
14-Sep-18 10:49 37.024465 -121.363878 26 18077ft 172kts
14-Sep-18 10:50 37.057689 -121.341681 27 18501ft 174kts
14-Sep-18 10:51 37.091865 -121.318837 28 18921ft 175kts
14-Sep-18 10:52 37.125339 -121.296446 28 19295ft 175kts
14-Sep-18 10:53 37.159382 -121.273655 28 19663ft 175kts
14-Sep-18 10:54 37.194157 -121.250372 28 20137ft 167kts
14-Sep-18 10:55 37.227945 -121.227726 28 20626ft 160kts
14-Sep-18 10:56 37.262140 -121.204762 28 20921ft 170kts
14-Sep-18 10:57 37.298151 -121.180509 28 20995ft 196kts
14-Sep-18 10:58 37.341346 -121.151324 28 20991ft 216kts
14-Sep-18 10:59 37.387337 -121.120310 29 20990ft 224kts
14-Sep-18 11:00 37.433632 -121.089048 29 20990ft 228kts
14-Sep-18 11:01 37.481425 -121.056734 29 20990ft 229kts
14-Sep-18 11:02 37.526403 -121.026281 30 20991ft 230kts
14-Sep-18 11:03 37.571130 -120.995956 30 20991ft 231kts
14-Sep-18 11:04 37.614255 -120.966687 30 20992ft 231kts
14-Sep-18 11:05 37.671622 -120.962360 349 20993ft 227kts
14-Sep-18 11:06 37.726192 -120.967938 349 20993ft 227kts
14-Sep-18 11:07 37.780518 -120.973510 349 20995ft 227kts
14-Sep-18 11:08 37.840786 -120.979696 349 20999ft 227kts
14-Sep-18 11:09 37.888432 -120.984572 349 21002ft 228kts
14-Sep-18 11:10 37.939721 -120.989373 349 21005ft 228kts
14-Sep-18 11:11 37.982205 -120.992910 350 21003ft 228kts
14-Sep-18 11:12 38.049690 -120.997719 351 21000ft 229kts
14-Sep-18 11:13 38.097334 -121.000578 351 21000ft 229kts
14-Sep-18 11:14 38.153923 -121.003360 352 20993ft 227kts
14-Sep-18 11:15 38.218008 -121.005694 352 20999ft 226kts
14-Sep-18 11:16 38.263547 -121.006872 353 21002ft 226kts
14-Sep-18 11:17 38.314239 -121.007836 354 20713ft 240kts
14-Sep-18 11:18 38.363953 -121.008485 355 20142ft 253kts
14-Sep-18 11:19 38.414413 -121.003974 28 19554ft 259kts
14-Sep-18 11:20 38.467002 -120.959318 36 18873ft 257kts
14-Sep-18 11:21 38.513985 -120.920957 35 18247ft 255kts
14-Sep-18 11:22 38.567923 -120.877065 35 17523ft 251kts
14-Sep-18 11:23 38.613371 -120.840040 35 16907ft 248kts
14-Sep-18 11:24 38.659481 -120.802417 35 16278ft 245kts
14-Sep-18 11:25 38.713518 -120.758251 35 15536ft 243kts
14-Sep-18 11:26 38.763096 -120.709027 43 14800ft 238kts
14-Sep-18 11:27 38.805674 -120.664432 43 14145ft 235kts
14-Sep-18 11:28 38.848767 -120.619276 43 13473ft 231kts
14-Sep-18 11:29 38.891463 -120.574673 42 12801ft 228kts
14-Sep-18 11:30 38.931755 -120.532313 41 12160ft 226kts
14-Sep-18 11:31 38.970082 -120.491970 41 11979ft 207kts
14-Sep-18 11:32 39.007267 -120.452789 40 12001ft 199kts
14-Sep-18 11:33 39.039484 -120.418782 40 12014ft 196kts
14-Sep-18 11:34 39.071738 -120.384702 40 12015ft 196kts
14-Sep-18 11:35 39.103180 -120.351424 40 12012ft 196kts
14-Sep-18 11:36 39.136161 -120.316478 41 12007ft 195kts
14-Sep-18 11:37 39.167667 -120.281626 58 11785ft 204kts
14-Sep-18 11:38 39.179926 -120.227971 78 11225ft 207kts
14-Sep-18 11:39 39.192374 -120.171483 78 11214ft 191kts
14-Sep-18 11:40 39.205211 -120.113008 78 11020ft 196kts
14-Sep-18 11:41 39.195519 -120.054802 117 10802ft 180kts
14-Sep-18 11:42 39.179638 -120.004521 117 10743ft 177kts
14-Sep-18 11:43 39.151186 -119.978591 177 10659ft 161kts
14-Sep-18 11:44 39.111140 -119.976541 181 10272ft 171kts
14-Sep-18 11:45 39.070880 -119.975606 181 9838ft 166kts
14-Sep-18 11:46 39.034749 -119.974797 181 9415ft 157kts
14-Sep-18 11:47 39.002634 -119.974288 188 8944ft 116kts
14-Sep-18 11:48 38.976433 -119.977667 183 8339ft 123kts
14-Sep-18 11:49 38.949409 -119.979339 189 7497ft 125kts
14-Sep-18 11:50 38.930010 -119.984736 196 6798ft 91kts
14-Sep-18 11:51 38.912294 -119.989918 193 6356ft 84kts
14-Sep-18 11:52 38.898885 -119.993845 212 6266ft 17kts
14-Sep-18 11:53 38.897367 -119.996732 193 6266ft 12kts
14-Sep-18 11:54 38.896745 -119.996727 103 6266ft 0kts
14-Sep-18 11:55 38.896745 -119.996727 103 6266ft 0kts

Navigation Log

Ident Type
Flight plan parsing failed, navigation log unavailable